Archival Weather

General Ignacio P Garcia Intl

General Ignacio P Garcia Intl, Mexico (MMHO)

Report from: Wednesday, December 6, 2023 2:40 PM CST
Current time: Friday, February 23, 2024 1:18 PM CST

Current weather – Weather history – Daily summaries
Weather forecast

Temperature31.0°C (87.8°F)
Heat index28.9°C (84.1°F)
Dew point-4.0°C (24.8°F)
Winds Calm
Visibility10 mi. (16.1 km)
Clouds Scattered clouds 20,000 ft. (6,096 m)
Altimeter30.01 in.Hg (1016 mB)
Relative humidity10 %
Density altitude1,814 ft. (553 m)
Sea-level pressure101.6 kPa (1016 mB, 30.01 in.Hg)
Remarks Pressure falling
Flight conditions Visual Meteorological Conditions
Raw dataMMHO 062040Z 00000KT 10SM SCT200 31/M04 A3001 RMK SLP161 57027 964 8/008 HZY
An error has occurred. This application may no longer respond until reloaded. Reload 🗙